Time;durP1;ratioP1;P1;durP2;ratioP2;P2;SDS_P1;SDS_P2;PMS_P1;PMS_P2;Temp;Humidity;BMP_temperature;BMP_pressure;BME280_temperature;BME280_humidity;BME280_pressure;Samples;Min_cycle;Max_cycle;Signal;HPM_P1;HPM_P2
2023/12/11 00:01:09;;;;;;;28.60;4.50;;;10.10;99.90;;;;;;5003869;28;20046;-83
2023/12/11 00:03:35;;;;;;;31.38;6.15;;;10.10;99.90;;;;;;5010030;28;20053;-82
2023/12/11 00:06:00;;;;;;;16.40;3.97;;;10.00;99.90;;;;;;5013874;28;20040;-82
2023/12/11 00:08:26;;;;;;;32.08;5.38;;;9.90;99.90;;;;;;5013208;28;20034;-82
2023/12/11 00:10:51;;;;;;;26.70;4.28;;;9.90;99.90;;;;;;5013315;28;20113;-81
2023/12/11 00:13:17;;;;;;;29.58;4.22;;;9.90;99.90;;;;;;5013735;28;20061;-82
2023/12/11 00:15:43;;;;;;;24.00;4.90;;;9.70;99.90;;;;;;5011094;28;20053;-82
2023/12/11 00:18:08;;;;;;;31.15;6.93;;;9.80;99.90;;;;;;5009548;28;20066;-83
2023/12/11 00:20:34;;;;;;;22.33;5.22;;;9.80;99.90;;;;;;5008392;28;20048;-82
2023/12/11 00:23:00;;;;;;;26.90;5.80;;;9.70;99.90;;;;;;5007489;28;20065;-82
2023/12/11 00:25:28;;;;;;;26.35;5.53;;;9.70;99.90;;;;;;5007214;28;20034;-82
2023/12/11 00:27:54;;;;;;;29.40;4.47;;;9.60;99.90;;;;;;5005272;28;20398;-82
2023/12/11 00:30:20;;;;;;;21.42;5.10;;;9.60;99.90;;;;;;4989753;28;20045;-82
2023/12/11 00:32:46;;;;;;;27.73;4.90;;;9.60;99.90;;;;;;5004713;28;20046;-82
2023/12/11 00:35:11;;;;;;;27.83;5.45;;;9.60;99.90;;;;;;5006727;28;20049;-82
2023/12/11 00:37:37;;;;;;;34.47;6.13;;;9.50;99.90;;;;;;5005050;28;20074;-82
2023/12/11 00:40:03;;;;;;;26.80;4.40;;;9.60;99.90;;;;;;5005221;28;20047;-82
2023/12/11 00:42:29;;;;;;;29.15;5.10;;;9.40;99.90;;;;;;5003576;28;20046;-81
2023/12/11 00:44:54;;;;;;;34.47;7.65;;;9.50;99.90;;;;;;4993626;28;20034;-79
2023/12/11 00:47:20;;;;;;;34.13;6.68;;;9.50;99.90;;;;;;4993244;28;20046;-79
2023/12/11 00:49:47;;;;;;;35.47;7.13;;;9.50;99.90;;;;;;4991801;28;20038;-79
2023/12/11 00:52:12;;;;;;;31.95;6.20;;;9.40;99.90;;;;;;4993466;28;20081;-79
2023/12/11 00:54:38;;;;;;;34.20;5.57;;;9.40;99.90;;;;;;4993439;28;20073;-79
2023/12/11 00:57:04;;;;;;;32.97;8.07;;;9.40;99.90;;;;;;5000340;28;20042;-79
2023/12/11 00:59:29;;;;;;;44.83;8.32;;;9.40;99.90;;;;;;5009156;28;20034;-80
2023/12/11 01:01:55;;;;;;;34.10;6.22;;;9.40;99.90;;;;;;5002125;28;20092;-80
2023/12/11 01:04:21;;;;;;;39.45;6.10;;;9.40;99.90;;;;;;5011190;28;20041;-79
2023/12/11 01:06:46;;;;;;;45.75;8.05;;;9.50;99.90;;;;;;5010985;28;20037;-80
2023/12/11 01:09:12;;;;;;;47.22;9.75;;;9.50;99.90;;;;;;5011284;28;20038;-79
2023/12/11 01:11:39;;;;;;;30.08;6.78;;;9.40;99.90;;;;;;5012184;28;20060;-79
2023/12/11 01:14:04;;;;;;;28.00;6.57;;;9.40;99.90;;;;;;5012356;28;20065;-79
2023/12/11 01:16:30;;;;;;;40.58;7.68;;;9.50;99.90;;;;;;5010753;28;20517;-79
2023/12/11 01:18:56;;;;;;;41.33;6.85;;;9.50;99.90;;;;;;5010798;28;20046;-79
2023/12/11 01:21:21;;;;;;;27.30;6.25;;;9.60;99.90;;;;;;5012972;28;20046;-79
2023/12/11 01:23:47;;;;;;;30.33;5.80;;;9.60;99.90;;;;;;5010788;28;20053;-79
2023/12/11 01:26:13;;;;;;;33.05;6.82;;;9.50;99.90;;;;;;4996019;28;20037;-79
2023/12/11 01:28:38;;;;;;;37.00;6.60;;;9.40;99.90;;;;;;5010723;28;20034;-79
2023/12/11 01:31:04;;;;;;;38.35;6.72;;;9.40;99.90;;;;;;5011665;28;20065;-79
2023/12/11 01:33:30;;;;;;;31.80;6.18;;;9.50;99.90;;;;;;5013041;28;20486;-79
2023/12/11 01:35:55;;;;;;;39.90;5.90;;;9.50;99.90;;;;;;5013353;28;20037;-79
2023/12/11 01:38:21;;;;;;;36.65;6.28;;;9.50;99.90;;;;;;5012983;28;20144;-79
2023/12/11 01:40:47;;;;;;;36.63;5.53;;;9.50;99.90;;;;;;5010969;28;20120;-79
2023/12/11 01:43:22;;;;;;;30.05;5.93;;;9.50;99.90;;;;;;5011928;28;20065;-79
2023/12/11 01:46:03;;;;;;;30.15;6.03;;;9.50;99.90;;;;;;5015000;28;20088;-79
2023/12/11 01:48:29;;;;;;;28.50;5.95;;;9.50;99.90;;;;;;5014861;28;20038;-79
2023/12/11 01:50:55;;;;;;;31.05;6.05;;;9.40;99.90;;;;;;5014899;28;20408;-79
2023/12/11 01:53:21;;;;;;;29.30;5.65;;;9.50;99.90;;;;;;5014637;28;20046;-79
2023/12/11 01:55:49;;;;;;;27.40;6.15;;;9.50;99.90;;;;;;4997974;28;20048;-79
2023/12/11 01:58:16;;;;;;;28.90;6.47;;;9.50;99.90;;;;;;5014477;28;20037;-79
2023/12/11 02:00:41;;;;;;;30.73;6.82;;;9.40;99.90;;;;;;5017157;28;20046;-79
2023/12/11 02:03:09;;;;;;;40.72;6.53;;;9.40;99.90;;;;;;5017322;28;20635;-80
2023/12/11 02:05:35;;;;;;;33.83;6.90;;;9.50;99.90;;;;;;5017015;28;20045;-79
2023/12/11 02:08:00;;;;;;;40.92;10.25;;;9.50;99.90;;;;;;5000365;28;20034;-79
2023/12/11 02:10:26;;;;;;;38.35;6.30;;;9.40;99.90;;;;;;4999466;28;20054;-79
2023/12/11 02:12:52;;;;;;;30.73;6.13;;;9.50;99.90;;;;;;5016671;28;20233;-79
2023/12/11 02:15:40;;;;;;;40.38;7.10;;;9.50;99.90;;;;;;5015494;28;20038;-79
2023/12/11 02:18:08;;;;;;;28.63;6.07;;;9.70;99.90;;;;;;5015466;28;20042;-79
2023/12/11 02:20:34;;;;;;;40.25;5.88;;;9.70;99.90;;;;;;5014090;28;20135;-79
2023/12/11 02:23:04;;;;;;;35.00;6.28;;;9.60;99.90;;;;;;5013797;28;20100;-79
2023/12/11 02:25:31;;;;;;;28.00;4.68;;;9.60;99.90;;;;;;5015374;28;20038;-79
2023/12/11 02:27:58;;;;;;;37.60;8.13;;;9.60;99.90;;;;;;4998133;28;20489;-79
2023/12/11 02:30:24;;;;;;;36.00;6.03;;;9.70;99.90;;;;;;5014269;28;20038;-79
2023/12/11 02:32:53;;;;;;;42.88;6.15;;;9.70;99.90;;;;;;5016496;28;20045;-79
2023/12/11 02:35:18;;;;;;;32.05;6.50;;;9.70;99.90;;;;;;5014018;28;20453;-78
2023/12/11 02:37:44;;;;;;;36.17;7.10;;;9.80;99.90;;;;;;4998783;28;20092;-79
2023/12/11 02:40:10;;;;;;;29.60;7.15;;;9.70;99.90;;;;;;4999849;28;20096;-79
2023/12/11 02:42:35;;;;;;;41.95;6.38;;;9.70;99.90;;;;;;5014999;28;20042;-79
2023/12/11 02:45:01;;;;;;;30.95;6.28;;;9.80;99.90;;;;;;5015961;28;20061;-79
2023/12/11 02:47:27;;;;;;;30.48;6.22;;;9.70;99.90;;;;;;5015568;28;20112;-78
2023/12/11 02:49:52;;;;;;;48.03;8.95;;;9.60;99.90;;;;;;4998608;28;20045;-79
2023/12/11 02:52:18;;;;;;;41.63;7.45;;;9.70;99.90;;;;;;5015398;28;20053;-80
2023/12/11 02:54:44;;;;;;;32.13;6.80;;;9.60;99.90;;;;;;4998540;28;20049;-79
2023/12/11 02:57:10;;;;;;;40.58;6.25;;;9.80;99.90;;;;;;4998913;28;20401;-79
2023/12/11 02:59:36;;;;;;;34.60;7.57;;;9.80;99.90;;;;;;5014214;28;20049;-79
2023/12/11 03:02:02;;;;;;;41.13;8.23;;;9.70;99.90;;;;;;5014935;28;20448;-79
2023/12/11 03:04:27;;;;;;;31.85;6.82;;;9.70;99.90;;;;;;5013152;28;20052;-79
2023/12/11 03:06:53;;;;;;;36.65;6.93;;;9.80;99.90;;;;;;5015125;28;20093;-80
2023/12/11 03:09:18;;;;;;;46.25;7.68;;;9.70;99.90;;;;;;5014484;28;20069;-79
2023/12/11 03:11:44;;;;;;;47.72;7.82;;;9.70;99.90;;;;;;4998972;28;20034;-79
2023/12/11 03:14:10;;;;;;;40.40;7.60;;;9.80;99.90;;;;;;5013095;28;20096;-79
2023/12/11 03:16:35;;;;;;;41.60;8.77;;;9.90;99.90;;;;;;5014505;28;20480;-80
2023/12/11 03:19:01;;;;;;;41.95;8.75;;;9.80;99.90;;;;;;5013830;28;20080;-79
2023/12/11 03:21:26;;;;;;;35.70;6.63;;;9.70;99.90;;;;;;5015270;28;20076;-79
2023/12/11 03:23:52;;;;;;;41.13;7.03;;;9.70;99.90;;;;;;5014616;28;20042;-79
2023/12/11 03:26:18;;;;;;;36.00;6.47;;;9.70;99.90;;;;;;5015712;28;20042;-79
2023/12/11 03:28:43;;;;;;;60.25;10.27;;;9.70;99.90;;;;;;5015797;28;20034;-79
2023/12/11 03:31:09;;;;;;;35.95;6.25;;;9.90;99.90;;;;;;5013319;28;20076;-79
2023/12/11 03:33:34;;;;;;;34.38;8.13;;;9.80;99.90;;;;;;5016697;28;20046;-79
2023/12/11 03:36:00;;;;;;;36.25;7.50;;;9.70;99.90;;;;;;5000141;28;20042;-79
2023/12/11 03:38:26;;;;;;;38.63;7.65;;;9.80;99.90;;;;;;5001154;28;20042;-79
2023/12/11 03:40:51;;;;;;;34.15;8.02;;;9.80;99.90;;;;;;5001783;28;20041;-80
2023/12/11 03:43:17;;;;;;;46.08;7.60;;;9.70;99.90;;;;;;5017038;28;20498;-80
2023/12/11 03:45:42;;;;;;;36.60;7.82;;;9.80;99.90;;;;;;4996378;28;20037;-79
2023/12/11 03:48:08;;;;;;;38.42;7.53;;;9.80;99.90;;;;;;5012829;28;20080;-80
2023/12/11 03:50:34;;;;;;;40.33;8.15;;;9.80;99.90;;;;;;4997224;28;20505;-80
2023/12/11 03:52:59;;;;;;;52.53;9.70;;;9.80;99.90;;;;;;5013290;28;20121;-79
2023/12/11 03:55:25;;;;;;;33.78;8.00;;;9.70;99.90;;;;;;5014235;28;20038;-79
2023/12/11 03:57:51;;;;;;;38.58;8.35;;;9.70;99.90;;;;;;5013158;28;20041;-79
2023/12/11 04:00:16;;;;;;;47.42;9.32;;;9.80;99.90;;;;;;5013884;28;20049;-79
2023/12/11 04:02:42;;;;;;;38.70;7.35;;;9.90;99.90;;;;;;5012429;28;20054;-80
2023/12/11 04:05:08;;;;;;;44.00;7.22;;;9.80;99.90;;;;;;5015073;28;20126;-79
2023/12/11 04:07:34;;;;;;;50.83;7.32;;;9.80;99.90;;;;;;5011316;28;20045;-79
2023/12/11 04:10:00;;;;;;;49.80;8.32;;;9.80;99.90;;;;;;5012234;28;20038;-79
2023/12/11 04:12:25;;;;;;;41.25;8.15;;;9.90;99.90;;;;;;5012840;28;20187;-79
2023/12/11 04:14:51;;;;;;;37.72;7.72;;;9.90;99.90;;;;;;5015358;28;20038;-79
2023/12/11 04:17:16;;;;;;;47.97;9.20;;;9.80;99.90;;;;;;5012397;28;20045;-79
2023/12/11 04:19:42;;;;;;;45.17;8.68;;;10.00;99.90;;;;;;5012046;28;20417;-80
2023/12/11 04:22:08;;;;;;;39.83;7.03;;;10.00;99.90;;;;;;5012575;28;20129;-79
2023/12/11 04:24:33;;;;;;;50.42;8.13;;;10.10;99.90;;;;;;5011656;28;20124;-79
2023/12/11 04:26:59;;;;;;;45.08;9.73;;;9.90;99.90;;;;;;5011514;28;20046;-79
2023/12/11 04:29:24;;;;;;;40.60;8.48;;;9.90;99.90;;;;;;5013389;28;20037;-80
2023/12/11 04:31:50;;;;;;;47.08;8.40;;;9.90;99.90;;;;;;5014105;28;20038;-79
2023/12/11 04:34:16;;;;;;;49.30;10.15;;;10.00;99.90;;;;;;4995681;28;20068;-79
2023/12/11 04:36:43;;;;;;;54.45;9.88;;;9.90;99.90;;;;;;5012781;28;20413;-79
2023/12/11 04:39:09;;;;;;;49.30;8.90;;;10.10;99.90;;;;;;5011173;28;20494;-80
2023/12/11 04:41:34;;;;;;;55.58;9.90;;;10.00;99.90;;;;;;5011918;28;20041;-79
2023/12/11 04:44:00;;;;;;;34.22;7.03;;;10.00;99.90;;;;;;5019216;28;20084;-80
2023/12/11 04:46:26;;;;;;;55.22;8.77;;;9.90;99.90;;;;;;4995058;28;20045;-79
2023/12/11 04:48:51;;;;;;;37.33;7.82;;;9.90;99.90;;;;;;5012804;28;20089;-80
2023/12/11 04:51:17;;;;;;;31.52;6.63;;;9.90;99.90;;;;;;5012981;28;20493;-80
2023/12/11 04:53:43;;;;;;;39.55;7.20;;;9.90;99.90;;;;;;5012330;28;20038;-80
2023/12/11 04:56:09;;;;;;;45.17;7.05;;;10.00;99.90;;;;;;5014132;28;20096;-79
2023/12/11 04:58:35;;;;;;;33.60;7.53;;;10.10;99.90;;;;;;4993928;28;20134;-80
2023/12/11 05:01:00;;;;;;;33.38;8.40;;;10.10;99.90;;;;;;4995815;28;20584;-79
2023/12/11 05:03:26;;;;;;;35.00;6.25;;;10.10;99.90;;;;;;4995076;28;20073;-79
2023/12/11 05:05:52;;;;;;;38.85;8.07;;;10.00;99.90;;;;;;4994991;28;20039;-79
2023/12/11 05:08:17;;;;;;;46.38;7.10;;;10.10;99.90;;;;;;4984830;28;20038;-81
2023/12/11 05:10:43;;;;;;;39.55;9.43;;;9.90;99.90;;;;;;5000505;28;20557;-80
2023/12/11 05:13:08;;;;;;;43.75;7.47;;;10.00;99.90;;;;;;4977046;28;20095;-79
2023/12/11 05:15:34;;;;;;;44.67;8.02;;;9.90;99.90;;;;;;4993352;28;20074;-79
2023/12/11 05:18:00;;;;;;;47.15;8.02;;;10.00;99.90;;;;;;4993534;28;20517;-79
2023/12/11 05:20:25;;;;;;;34.40;6.40;;;9.90;99.90;;;;;;4997400;28;20108;-80
2023/12/11 05:22:51;;;;;;;40.78;8.10;;;10.00;99.90;;;;;;4993935;28;20600;-79
2023/12/11 05:25:16;;;;;;;49.80;8.85;;;10.10;99.90;;;;;;4994399;28;20043;-79
2023/12/11 05:27:42;;;;;;;43.88;7.40;;;10.00;99.90;;;;;;4993373;28;20085;-80
2023/12/11 05:30:08;;;;;;;40.33;7.28;;;10.00;99.90;;;;;;4991019;28;20042;-80
2023/12/11 05:32:34;;;;;;;44.78;7.63;;;9.90;99.90;;;;;;4993714;28;20093;-79
2023/12/11 05:35:00;;;;;;;39.10;9.23;;;10.10;99.90;;;;;;4993462;28;20050;-80
2023/12/11 05:37:25;;;;;;;37.90;6.38;;;9.90;99.90;;;;;;4974552;28;20046;-79
2023/12/11 05:39:51;;;;;;;39.42;6.50;;;10.00;99.90;;;;;;4992040;28;20073;-79
2023/12/11 05:42:16;;;;;;;36.75;7.00;;;9.90;99.90;;;;;;4992547;28;20038;-79
2023/12/11 05:44:42;;;;;;;40.47;7.40;;;9.90;99.90;;;;;;4990796;28;20529;-79
2023/12/11 05:47:07;;;;;;;38.33;5.97;;;9.90;99.90;;;;;;4975251;28;20066;-80
2023/12/11 05:49:33;;;;;;;37.65;6.10;;;10.00;99.90;;;;;;4991062;28;20088;-79
2023/12/11 05:51:59;;;;;;;36.78;6.15;;;10.00;99.90;;;;;;4992333;28;20038;-79
2023/12/11 05:54:24;;;;;;;39.25;7.53;;;10.00;99.90;;;;;;4993316;28;20049;-80
2023/12/11 05:56:50;;;;;;;37.83;6.72;;;9.90;99.90;;;;;;4976883;28;20034;-79
2023/12/11 05:59:16;;;;;;;32.00;5.55;;;9.90;99.90;;;;;;4992388;28;20061;-80
2023/12/11 06:01:41;;;;;;;26.73;5.80;;;10.00;99.90;;;;;;4997570;28;20518;-80
2023/12/11 06:04:07;;;;;;;44.50;8.55;;;9.90;99.90;;;;;;4994434;28;20138;-79
2023/12/11 06:06:32;;;;;;;35.38;6.72;;;10.10;99.90;;;;;;4993391;28;20468;-80
2023/12/11 06:08:58;;;;;;;27.63;5.45;;;10.00;99.90;;;;;;4990995;28;20046;-79
2023/12/11 06:11:24;;;;;;;32.55;4.82;;;9.90;99.90;;;;;;4993168;28;20121;-80
2023/12/11 06:13:50;;;;;;;36.95;6.68;;;9.90;99.90;;;;;;4993020;28;20042;-79
2023/12/11 06:16:16;;;;;;;41.35;6.60;;;10.10;99.90;;;;;;4992915;28;20050;-79
2023/12/11 06:18:41;;;;;;;32.55;6.88;;;10.00;99.90;;;;;;4990806;28;20042;-79
2023/12/11 06:21:17;;;;;;;24.52;5.20;;;10.00;99.90;;;;;;4995456;28;20046;-80
2023/12/11 06:23:43;;;;;;;33.10;5.95;;;10.00;99.90;;;;;;4992855;28;20498;-79
2023/12/11 06:26:08;;;;;;;29.38;5.50;;;10.00;99.90;;;;;;4976551;28;20177;-80
2023/12/11 06:28:34;;;;;;;32.13;4.78;;;10.10;99.90;;;;;;4976597;28;20069;-79
2023/12/11 06:30:59;;;;;;;24.48;5.30;;;10.00;99.90;;;;;;4995062;28;20046;-79
2023/12/11 06:33:25;;;;;;;37.03;6.93;;;10.00;99.90;;;;;;4997115;28;20042;-80
2023/12/11 06:35:51;;;;;;;30.65;4.78;;;10.00;99.90;;;;;;4996600;28;20042;-80
2023/12/11 06:38:17;;;;;;;33.00;5.13;;;10.10;99.90;;;;;;4981034;28;20465;-80
2023/12/11 06:40:42;;;;;;;37.83;5.85;;;10.10;99.90;;;;;;4994235;28;20042;-80
2023/12/11 06:43:08;;;;;;;30.33;6.63;;;10.10;99.90;;;;;;4980515;28;20069;-79
2023/12/11 06:45:34;;;;;;;27.02;5.45;;;10.00;99.90;;;;;;4996435;28;20034;-79
2023/12/11 06:47:59;;;;;;;33.03;5.60;;;10.00;99.90;;;;;;4995916;28;20041;-80
2023/12/11 06:50:25;;;;;;;41.80;5.65;;;10.00;99.90;;;;;;4993729;28;20073;-79
2023/12/11 06:52:51;;;;;;;34.38;6.82;;;10.10;99.90;;;;;;4993878;28;20050;-79
2023/12/11 06:55:16;;;;;;;40.15;5.72;;;10.10;99.90;;;;;;4977643;28;20053;-79
2023/12/11 06:57:42;;;;;;;30.65;5.88;;;10.00;99.90;;;;;;4993442;28;20053;-79
2023/12/11 07:00:09;;;;;;;33.40;5.85;;;10.00;99.90;;;;;;4995681;28;20418;-79
2023/12/11 07:02:35;;;;;;;25.58;4.72;;;10.00;99.90;;;;;;4995836;28;20046;-79
2023/12/11 07:05:01;;;;;;;20.80;4.90;;;10.10;99.90;;;;;;4993545;28;20048;-79
2023/12/11 07:07:26;;;;;;;30.50;5.22;;;9.90;99.90;;;;;;4993475;28;20038;-79
2023/12/11 07:09:52;;;;;;;28.40;5.45;;;10.10;99.90;;;;;;4994884;28;20034;-79
2023/12/11 07:12:18;;;;;;;25.75;4.15;;;10.10;99.90;;;;;;4995178;28;20042;-79
2023/12/11 07:14:44;;;;;;;39.58;6.13;;;10.00;99.90;;;;;;4993826;28;20034;-79
2023/12/11 07:17:09;;;;;;;22.33;5.93;;;10.00;99.90;;;;;;4994892;28;20100;-78
2023/12/11 07:19:35;;;;;;;34.95;5.90;;;9.90;99.90;;;;;;4994308;28;20038;-79
2023/12/11 07:22:01;;;;;;;25.15;3.75;;;10.00;99.90;;;;;;4994028;28;20038;-78
2023/12/11 07:24:26;;;;;;;26.08;4.65;;;10.00;99.90;;;;;;4994178;28;20042;-78
2023/12/11 07:26:52;;;;;;;27.70;4.68;;;9.90;99.90;;;;;;4992763;28;20042;-79
2023/12/11 07:29:17;;;;;;;17.48;5.43;;;10.10;99.90;;;;;;4976546;28;20529;-78
2023/12/11 07:31:44;;;;;;;27.15;4.68;;;10.00;99.90;;;;;;4993215;28;20042;-79
2023/12/11 07:34:09;;;;;;;20.20;3.97;;;9.90;99.90;;;;;;4993914;28;20053;-80
2023/12/11 07:36:35;;;;;;;23.02;5.45;;;9.90;99.90;;;;;;4993408;28;20047;-79
2023/12/11 07:39:01;;;;;;;29.35;4.63;;;9.80;99.90;;;;;;4992663;28;20049;-79
2023/12/11 07:41:27;;;;;;;19.23;4.18;;;9.90;99.90;;;;;;4991854;28;20144;-79
2023/12/11 07:43:52;;;;;;;26.85;5.80;;;10.00;99.90;;;;;;4984198;28;20036;-79
2023/12/11 07:46:19;;;;;;;21.60;4.00;;;9.90;99.90;;;;;;4990903;28;20614;-79
2023/12/11 07:48:44;;;;;;;29.10;4.55;;;9.90;99.90;;;;;;4994468;28;20398;-80
2023/12/11 07:51:20;;;;;;;17.10;3.65;;;9.90;99.90;;;;;;5026508;28;20049;-79
2023/12/11 07:53:47;;;;;;;18.80;4.90;;;10.00;99.90;;;;;;4977612;28;20053;-78
2023/12/11 07:56:23;;;;;;;20.02;3.90;;;9.90;99.90;;;;;;4978906;28;20078;-77
2023/12/11 07:58:49;;;;;;;22.67;4.43;;;9.80;99.90;;;;;;4993912;28;20034;-77
2023/12/11 08:01:15;;;;;;;24.33;3.85;;;10.00;99.90;;;;;;4992835;28;20494;-77
2023/12/11 08:03:41;;;;;;;24.45;3.47;;;10.00;99.90;;;;;;5025278;28;20042;-77
2023/12/11 08:06:10;;;;;;;15.65;4.45;;;10.00;99.90;;;;;;4993142;28;20078;-78
2023/12/11 08:08:43;;;;;;;27.45;6.15;;;10.00;99.90;;;;;;4992491;28;20034;-78
2023/12/11 08:11:20;;;;;;;25.40;4.63;;;10.00;99.90;;;;;;4992283;28;20097;-78
2023/12/11 08:13:46;;;;;;;19.77;4.22;;;10.00;99.90;;;;;;4976381;28;20045;-77
2023/12/11 08:16:13;;;;;;;23.50;5.07;;;10.00;99.90;;;;;;4992149;28;20088;-77
2023/12/11 08:18:41;;;;;;;17.63;4.18;;;9.90;99.90;;;;;;4992229;28;20053;-77
2023/12/11 08:21:06;;;;;;;22.80;4.70;;;10.00;99.90;;;;;;4993633;28;20042;-77
2023/12/11 08:23:32;;;;;;;23.85;4.93;;;9.90;99.90;;;;;;4994016;28;20421;-77
2023/12/11 08:25:58;;;;;;;23.08;4.10;;;9.90;99.90;;;;;;4992647;28;20039;-77
2023/12/11 08:28:24;;;;;;;21.23;5.22;;;10.10;99.90;;;;;;4993400;28;20053;-77
2023/12/11 08:30:50;;;;;;;28.25;3.92;;;10.10;99.90;;;;;;4993569;28;20034;-77
2023/12/11 08:33:15;;;;;;;24.35;4.43;;;10.00;99.90;;;;;;4994170;28;20046;-77
2023/12/11 08:35:41;;;;;;;18.88;3.35;;;10.10;99.90;;;;;;4993614;28;20518;-77
2023/12/11 08:38:07;;;;;;;14.98;4.93;;;10.00;99.90;;;;;;4985852;28;20047;-73
2023/12/11 08:40:32;;;;;;;18.42;4.32;;;10.10;99.90;;;;;;4973929;28;20039;-76
2023/12/11 08:42:58;;;;;;;23.65;4.13;;;9.90;99.90;;;;;;4972377;28;20045;-76
2023/12/11 08:45:24;;;;;;;13.45;3.63;;;9.90;99.90;;;;;;4972547;28;20038;-76
2023/12/11 08:47:50;;;;;;;18.58;3.38;;;9.90;99.90;;;;;;4975438;28;20062;-76
2023/12/11 08:50:16;;;;;;;20.90;4.75;;;9.90;99.90;;;;;;4976679;28;20035;-77
2023/12/11 08:52:43;;;;;;;14.18;3.63;;;10.10;99.90;;;;;;4976598;28;20110;-77
2023/12/11 08:55:09;;;;;;;22.95;5.63;;;9.90;99.90;;;;;;4978926;28;20039;-77
2023/12/11 08:57:35;;;;;;;16.40;3.53;;;10.00;99.90;;;;;;4982483;28;20047;-76
2023/12/11 09:00:03;;;;;;;15.23;4.03;;;10.00;99.90;;;;;;4982031;28;20058;-77
2023/12/11 09:02:29;;;;;;;14.25;3.67;;;10.00;99.90;;;;;;4986261;28;20130;-77
2023/12/11 09:04:55;;;;;;;14.93;3.55;;;10.10;99.90;;;;;;4985846;28;20066;-77
2023/12/11 09:07:20;;;;;;;11.32;3.70;;;9.90;99.90;;;;;;4982294;28;20046;-77
2023/12/11 09:09:46;;;;;;;15.02;3.50;;;10.10;99.90;;;;;;4980735;28;20131;-77
2023/12/11 09:12:12;;;;;;;14.88;2.80;;;10.20;99.90;;;;;;4986986;28;20045;-77
2023/12/11 09:14:37;;;;;;;18.98;3.97;;;10.00;99.90;;;;;;4987018;28;20041;-77
2023/12/11 09:17:03;;;;;;;11.90;3.65;;;10.10;99.90;;;;;;4986417;28;20031;-77
2023/12/11 09:19:29;;;;;;;13.30;3.45;;;10.20;99.90;;;;;;4979107;28;20051;-76
2023/12/11 09:21:55;;;;;;;10.98;3.08;;;10.10;99.90;;;;;;4976129;28;20039;-76
2023/12/11 09:24:20;;;;;;;13.32;3.60;;;10.20;99.90;;;;;;4972215;28;20038;-76
2023/12/11 09:26:46;;;;;;;12.45;3.70;;;10.20;99.90;;;;;;4971956;28;20046;-77
2023/12/11 09:29:11;;;;;;;14.80;3.65;;;10.10;99.90;;;;;;4958358;28;20043;-79
2023/12/11 09:31:38;;;;;;;14.35;3.45;;;10.30;99.90;;;;;;4958331;28;20041;-79
2023/12/11 09:34:03;;;;;;;14.77;3.67;;;10.20;99.90;;;;;;4956733;28;20046;-77
2023/12/11 09:36:29;;;;;;;9.65;3.72;;;10.30;99.90;;;;;;4974152;28;20578;-76
2023/12/11 09:38:58;;;;;;;11.27;4.28;;;10.20;99.90;;;;;;4972639;28;20042;-78
2023/12/11 09:41:30;;;;;;;12.02;4.15;;;10.30;99.90;;;;;;4972213;28;20450;-78
2023/12/11 09:43:57;;;;;;;16.40;3.83;;;10.30;99.90;;;;;;4972074;28;20053;-78
2023/12/11 09:46:24;;;;;;;14.35;3.75;;;10.40;99.90;;;;;;4972152;28;20130;-78
2023/12/11 09:48:49;;;;;;;13.27;3.95;;;10.20;99.90;;;;;;4972510;28;20038;-78
2023/12/11 09:51:16;;;;;;;17.63;4.10;;;10.40;99.90;;;;;;4971794;28;20042;-77
2023/12/11 09:53:43;;;;;;;9.70;3.03;;;10.30;99.90;;;;;;4972274;28;20038;-79
2023/12/11 09:56:12;;;;;;;15.82;4.22;;;10.30;99.90;;;;;;4971464;28;20035;-78
2023/12/11 09:58:39;;;;;;;15.32;3.47;;;10.40;99.90;;;;;;4955329;28;20054;-78
2023/12/11 10:01:07;;;;;;;19.25;4.50;;;10.50;99.90;;;;;;4972304;28;20097;-78
2023/12/11 10:03:32;;;;;;;11.70;3.95;;;10.50;99.90;;;;;;4973667;28;20082;-78
2023/12/11 10:06:03;;;;;;;15.85;3.78;;;10.40;99.90;;;;;;4974837;28;20093;-78
2023/12/11 10:08:29;;;;;;;18.25;4.05;;;10.50;99.90;;;;;;4975851;28;20039;-78
2023/12/11 10:11:11;;;;;;;23.45;4.75;;;10.50;99.90;;;;;;4975992;28;20060;-78
2023/12/11 10:13:38;;;;;;;12.55;3.70;;;10.50;99.90;;;;;;4976391;28;20050;-77
2023/12/11 10:16:05;;;;;;;16.70;3.90;;;10.50;99.90;;;;;;4975027;28;20046;-78
2023/12/11 10:18:31;;;;;;;21.52;4.43;;;10.40;99.90;;;;;;4961048;28;20080;-78
2023/12/11 10:20:58;;;;;;;17.85;3.63;;;10.60;99.90;;;;;;4975908;28;20089;-78
2023/12/11 10:23:24;;;;;;;16.33;4.22;;;10.60;99.90;;;;;;4976044;28;20047;-79
2023/12/11 10:26:03;;;;;;;20.30;4.25;;;10.60;99.90;;;;;;4974998;28;20039;-78
2023/12/11 10:28:29;;;;;;;17.15;4.28;;;10.60;99.90;;;;;;4959709;28;20034;-79
2023/12/11 10:31:01;;;;;;;18.45;4.72;;;10.60;99.90;;;;;;4975017;28;20038;-78
2023/12/11 10:33:30;;;;;;;21.38;3.45;;;10.50;99.90;;;;;;4975167;28;20097;-78
2023/12/11 10:36:15;;;;;;;13.38;3.33;;;10.70;99.90;;;;;;4974687;28;20119;-78
2023/12/11 10:38:42;;;;;;;12.38;3.22;;;10.70;99.90;;;;;;4974558;28;20042;-78
2023/12/11 10:41:08;;;;;;;14.68;2.53;;;10.70;99.90;;;;;;4975842;28;20406;-77
2023/12/11 10:43:41;;;;;;;11.82;3.67;;;10.60;99.90;;;;;;4974728;28;20042;-78
2023/12/11 10:46:07;;;;;;;;;;;10.70;99.90;;;;;;4974906;28;20081;-78
2023/12/11 10:48:37;;;;;;;10.57;1.80;;;10.50;99.90;;;;;;4974472;28;19918;-77
2023/12/11 10:51:06;;;;;;;10.35;1.83;;;10.50;99.90;;;;;;4958369;28;20081;-77
2023/12/11 10:53:35;;;;;;;16.08;2.00;;;10.60;99.90;;;;;;4974524;28;20043;-78
2023/12/11 10:56:02;;;;;;;13.48;2.67;;;10.50;99.90;;;;;;4988166;28;20423;-78
2023/12/11 10:58:28;;;;;;;19.80;2.70;;;10.60;99.90;;;;;;4999382;28;20561;-78
2023/12/11 11:01:01;;;;;;;18.02;3.55;;;10.50;99.90;;;;;;5003447;28;20173;-78
2023/12/11 11:03:30;;;;;;;14.90;2.97;;;10.70;99.90;;;;;;5010860;28;20046;-77
2023/12/11 11:05:56;;;;;;;16.58;2.67;;;10.70;99.90;;;;;;5013027;28;20517;-78
2023/12/11 11:08:54;;;;;;;27.17;3.92;;;10.70;99.90;;;;;;4996516;28;20040;-78
2023/12/11 11:11:31;;;;;;;16.08;3.38;;;10.70;99.90;;;;;;5001903;28;20438;-78
2023/12/11 11:14:35;;;;;;;17.85;2.90;;;10.60;99.90;;;;;;5013951;28;20053;-78
2023/12/11 11:17:00;;;;;;;18.73;3.23;;;10.50;99.90;;;;;;5013028;28;20056;-78
2023/12/11 11:19:29;;;;;;;26.98;3.80;;;10.70;99.90;;;;;;5013223;28;20132;-78
2023/12/11 11:22:04;;;;;;;19.10;3.83;;;10.60;99.90;;;;;;4997182;28;20046;-78
2023/12/11 11:24:30;;;;;;;14.85;3.10;;;10.60;99.90;;;;;;4996544;28;20048;-78
2023/12/11 11:26:57;;;;;;;23.48;3.50;;;10.60;99.90;;;;;;4996918;28;20060;-78
2023/12/11 11:29:42;;;;;;;22.65;4.45;;;10.60;99.90;;;;;;4995621;28;20038;-78
2023/12/11 11:32:09;;;;;;;22.40;3.03;;;10.70;99.90;;;;;;4968860;28;20027;-79
2023/12/11 11:34:41;;;;;;;14.25;3.17;;;10.80;99.90;;;;;;4970214;28;20046;-78
2023/12/11 11:37:07;;;;;;;17.60;3.55;;;10.60;99.90;;;;;;4983666;28;20072;-79
2023/12/11 11:39:59;;;;;;;17.67;3.33;;;10.70;99.90;;;;;;4966425;28;20042;-79
2023/12/11 11:42:32;;;;;;;24.00;3.65;;;10.70;99.90;;;;;;5017103;28;20033;-79
2023/12/11 11:45:00;;;;;;;10.15;2.60;;;10.60;99.90;;;;;;4997986;28;20042;-79
2023/12/11 11:47:26;;;;;;;15.73;2.75;;;10.70;99.90;;;;;;4976621;28;20043;-77
2023/12/11 11:49:53;;;;;;;19.30;2.70;;;10.60;99.90;;;;;;4992956;28;20486;-80
2023/12/11 11:52:29;;;;;;;16.55;2.72;;;10.70;99.90;;;;;;4976740;28;20034;-79
2023/12/11 11:55:06;;;;;;;12.68;2.15;;;10.70;99.90;;;;;;4996249;28;20043;-79
2023/12/11 11:57:32;;;;;;;6.90;2.13;;;10.50;99.90;;;;;;4994055;28;20113;-80
2023/12/11 11:59:58;;;;;;;7.75;1.85;;;10.60;99.90;;;;;;4992750;28;20038;-79
2023/12/11 12:02:24;;;;;;;8.63;1.90;;;10.50;99.90;;;;;;4992828;28;20034;-79
2023/12/11 12:04:50;;;;;;;19.65;2.85;;;10.50;99.90;;;;;;4989226;28;20062;-80
2023/12/11 12:07:16;;;;;;;8.15;1.50;;;10.50;99.90;;;;;;4999951;28;20038;-80
2023/12/11 12:09:42;;;;;;;8.60;1.70;;;10.50;99.90;;;;;;5013352;28;20053;-80
2023/12/11 12:12:14;;;;;;;12.30;2.50;;;10.60;99.90;;;;;;5012248;28;20046;-79
2023/12/11 12:14:41;;;;;;;9.23;1.70;;;10.50;99.90;;;;;;5013257;28;20042;-79
2023/12/11 12:17:10;;;;;;;12.85;2.53;;;10.50;99.90;;;;;;5010639;28;20092;-79
2023/12/11 12:19:36;;;;;;;9.85;2.58;;;10.40;99.90;;;;;;5013900;28;20042;-80
2023/12/11 12:22:02;;;;;;;7.32;1.27;;;10.50;99.90;;;;;;5013525;28;20046;-79
2023/12/11 12:24:29;;;;;;;8.95;1.95;;;10.40;99.90;;;;;;5012828;28;20042;-79
2023/12/11 12:26:59;;;;;;;4.97;1.73;;;10.40;99.90;;;;;;5012666;28;20033;-79
2023/12/11 12:29:26;;;;;;;7.30;1.42;;;10.50;99.90;;;;;;5013497;28;20045;-79
2023/12/11 12:31:52;;;;;;;7.05;1.85;;;10.50;99.90;;;;;;5012180;28;20125;-80
2023/12/11 12:34:18;;;;;;;6.93;1.60;;;10.60;99.90;;;;;;5012742;28;20088;-79
2023/12/11 12:36:45;;;;;;;9.48;2.05;;;10.50;99.90;;;;;;5015458;28;20606;-73
2023/12/11 12:39:12;;;;;;;7.35;1.50;;;10.60;99.90;;;;;;5011464;28;20049;-75
2023/12/11 12:41:38;;;;;;;11.45;2.40;;;10.70;99.90;;;;;;5006130;28;20049;-75